sensor_id;sensor_type;location;lat;lon;timestamp;temperature;humidity
75022;SHT31;63583;49.976;20.182;2024-02-14T00:01:34;4.24;75.22
75022;SHT31;63583;49.976;20.182;2024-02-14T00:04:03;4.18;76.02
75022;SHT31;63583;49.976;20.182;2024-02-14T00:06:29;4.27;75.92
75022;SHT31;63583;49.976;20.182;2024-02-14T00:08:55;4.14;76.15
75022;SHT31;63583;49.976;20.182;2024-02-14T00:11:20;4.13;76.50
75022;SHT31;63583;49.976;20.182;2024-02-14T00:13:46;4.21;76.31
75022;SHT31;63583;49.976;20.182;2024-02-14T00:16:12;4.31;75.81
75022;SHT31;63583;49.976;20.182;2024-02-14T00:18:38;4.42;75.90
75022;SHT31;63583;49.976;20.182;2024-02-14T00:21:04;4.38;76.35
75022;SHT31;63583;49.976;20.182;2024-02-14T00:23:29;4.36;76.79
75022;SHT31;63583;49.976;20.182;2024-02-14T00:25:55;4.21;77.45
75022;SHT31;63583;49.976;20.182;2024-02-14T00:28:22;4.17;78.02
75022;SHT31;63583;49.976;20.182;2024-02-14T00:30:49;4.14;78.14
75022;SHT31;63583;49.976;20.182;2024-02-14T00:33:15;4.04;78.65
75022;SHT31;63583;49.976;20.182;2024-02-14T00:35:41;4.10;78.61
75022;SHT31;63583;49.976;20.182;2024-02-14T00:38:07;4.21;78.13
75022;SHT31;63583;49.976;20.182;2024-02-14T00:40:33;4.11;78.74
75022;SHT31;63583;49.976;20.182;2024-02-14T00:42:59;4.13;79.06
75022;SHT31;63583;49.976;20.182;2024-02-14T00:45:25;4.07;79.54
75022;SHT31;63583;49.976;20.182;2024-02-14T00:47:51;4.16;79.43
75022;SHT31;63583;49.976;20.182;2024-02-14T00:50:16;4.10;79.19
75022;SHT31;63583;49.976;20.182;2024-02-14T00:52:42;4.13;79.17
75022;SHT31;63583;49.976;20.182;2024-02-14T00:55:08;4.04;79.64
75022;SHT31;63583;49.976;20.182;2024-02-14T00:57:34;4.06;79.87
75022;SHT31;63583;49.976;20.182;2024-02-14T01:00:00;4.06;79.76
75022;SHT31;63583;49.976;20.182;2024-02-14T01:02:26;4.09;79.72
75022;SHT31;63583;49.976;20.182;2024-02-14T01:04:52;4.07;79.93
75022;SHT31;63583;49.976;20.182;2024-02-14T01:07:18;4.03;79.64
75022;SHT31;63583;49.976;20.182;2024-02-14T01:09:43;4.00;79.64
75022;SHT31;63583;49.976;20.182;2024-02-14T01:12:09;4.00;79.48
75022;SHT31;63583;49.976;20.182;2024-02-14T01:14:35;3.96;79.43
75022;SHT31;63583;49.976;20.182;2024-02-14T01:17:01;4.09;78.73
75022;SHT31;63583;49.976;20.182;2024-02-14T01:19:29;4.04;79.14
75022;SHT31;63583;49.976;20.182;2024-02-14T01:21:55;4.09;79.15
75022;SHT31;63583;49.976;20.182;2024-02-14T01:24:23;4.14;79.28
75022;SHT31;63583;49.976;20.182;2024-02-14T01:26:53;4.00;79.35
75022;SHT31;63583;49.976;20.182;2024-02-14T01:29:20;4.01;79.84
75022;SHT31;63583;49.976;20.182;2024-02-14T01:31:46;4.14;79.37
75022;SHT31;63583;49.976;20.182;2024-02-14T01:34:12;4.03;79.83
75022;SHT31;63583;49.976;20.182;2024-02-14T01:36:38;3.99;80.21
75022;SHT31;63583;49.976;20.182;2024-02-14T01:39:04;4.03;79.96
75022;SHT31;63583;49.976;20.182;2024-02-14T01:41:47;3.99;80.46
75022;SHT31;63583;49.976;20.182;2024-02-14T01:44:17;3.90;80.92
75022;SHT31;63583;49.976;20.182;2024-02-14T01:46:44;3.85;81.21
75022;SHT31;63583;49.976;20.182;2024-02-14T01:49:13;3.89;81.12
75022;SHT31;63583;49.976;20.182;2024-02-14T01:51:43;3.87;81.44
75022;SHT31;63583;49.976;20.182;2024-02-14T01:54:11;3.89;81.35
75022;SHT31;63583;49.976;20.182;2024-02-14T01:56:39;3.86;81.46
75022;SHT31;63583;49.976;20.182;2024-02-14T01:59:05;3.86;81.51
75022;SHT31;63583;49.976;20.182;2024-02-14T02:01:32;3.82;81.48
75022;SHT31;63583;49.976;20.182;2024-02-14T02:03:58;3.90;81.21
75022;SHT31;63583;49.976;20.182;2024-02-14T02:06:25;3.90;81.14
75022;SHT31;63583;49.976;20.182;2024-02-14T02:08:51;3.93;81.26
75022;SHT31;63583;49.976;20.182;2024-02-14T02:11:18;3.97;81.04
75022;SHT31;63583;49.976;20.182;2024-02-14T02:13:44;3.86;81.46
75022;SHT31;63583;49.976;20.182;2024-02-14T02:16:10;3.80;81.60
75022;SHT31;63583;49.976;20.182;2024-02-14T02:18:36;3.87;80.94
75022;SHT31;63583;49.976;20.182;2024-02-14T02:21:03;3.90;81.01
75022;SHT31;63583;49.976;20.182;2024-02-14T02:23:35;3.87;81.28
75022;SHT31;63583;49.976;20.182;2024-02-14T02:26:02;3.87;81.26
75022;SHT31;63583;49.976;20.182;2024-02-14T02:28:27;3.76;81.88
75022;SHT31;63583;49.976;20.182;2024-02-14T02:30:53;3.76;81.93
75022;SHT31;63583;49.976;20.182;2024-02-14T02:33:20;3.76;82.09
75022;SHT31;63583;49.976;20.182;2024-02-14T02:35:48;3.73;82.25
75022;SHT31;63583;49.976;20.182;2024-02-14T02:38:16;3.66;82.40
75022;SHT31;63583;49.976;20.182;2024-02-14T02:40:43;3.71;82.23
75022;SHT31;63583;49.976;20.182;2024-02-14T02:43:09;3.65;82.36
75022;SHT31;63583;49.976;20.182;2024-02-14T02:45:36;3.68;82.47
75022;SHT31;63583;49.976;20.182;2024-02-14T02:48:02;3.72;82.53
75022;SHT31;63583;49.976;20.182;2024-02-14T02:50:28;3.69;82.51
75022;SHT31;63583;49.976;20.182;2024-02-14T02:52:55;3.72;82.62
75022;SHT31;63583;49.976;20.182;2024-02-14T02:55:22;3.73;82.56
75022;SHT31;63583;49.976;20.182;2024-02-14T02:57:48;3.78;82.15
75022;SHT31;63583;49.976;20.182;2024-02-14T03:00:15;3.82;82.23
75022;SHT31;63583;49.976;20.182;2024-02-14T03:02:41;3.75;82.00
75022;SHT31;63583;49.976;20.182;2024-02-14T03:05:10;3.69;82.35
75022;SHT31;63583;49.976;20.182;2024-02-14T03:07:46;3.63;82.12
75022;SHT31;63583;49.976;20.182;2024-02-14T03:10:13;3.58;82.66
75022;SHT31;63583;49.976;20.182;2024-02-14T03:12:40;3.68;82.27
75022;SHT31;63583;49.976;20.182;2024-02-14T03:15:06;3.63;82.39
75022;SHT31;63583;49.976;20.182;2024-02-14T03:17:35;3.59;82.65
75022;SHT31;63583;49.976;20.182;2024-02-14T03:20:01;3.58;82.48
75022;SHT31;63583;49.976;20.182;2024-02-14T03:22:27;3.66;82.40
75022;SHT31;63583;49.976;20.182;2024-02-14T03:24:53;3.69;82.10
75022;SHT31;63583;49.976;20.182;2024-02-14T03:27:19;3.72;82.32
75022;SHT31;63583;49.976;20.182;2024-02-14T03:29:45;3.71;82.37
75022;SHT31;63583;49.976;20.182;2024-02-14T03:32:13;3.59;82.17
75022;SHT31;63583;49.976;20.182;2024-02-14T03:34:38;3.65;82.26
75022;SHT31;63583;49.976;20.182;2024-02-14T03:37:05;3.66;82.06
75022;SHT31;63583;49.976;20.182;2024-02-14T03:39:32;3.63;82.16
75022;SHT31;63583;49.976;20.182;2024-02-14T03:41:59;3.61;82.07
75022;SHT31;63583;49.976;20.182;2024-02-14T03:44:28;3.62;82.09
75022;SHT31;63583;49.976;20.182;2024-02-14T03:46:54;3.75;81.50
75022;SHT31;63583;49.976;20.182;2024-02-14T03:49:19;3.72;81.29
75022;SHT31;63583;49.976;20.182;2024-02-14T03:51:45;3.78;81.31
75022;SHT31;63583;49.976;20.182;2024-02-14T03:54:11;3.79;81.10
75022;SHT31;63583;49.976;20.182;2024-02-14T03:56:37;3.72;81.55
75022;SHT31;63583;49.976;20.182;2024-02-14T03:59:03;3.71;81.55
75022;SHT31;63583;49.976;20.182;2024-02-14T04:01:31;3.73;81.21
75022;SHT31;63583;49.976;20.182;2024-02-14T04:03:57;3.76;80.72
75022;SHT31;63583;49.976;20.182;2024-02-14T04:06:23;3.69;81.08
75022;SHT31;63583;49.976;20.182;2024-02-14T04:08:50;3.72;81.35
75022;SHT31;63583;49.976;20.182;2024-02-14T04:11:15;3.73;81.10
75022;SHT31;63583;49.976;20.182;2024-02-14T04:13:41;3.68;81.25
75022;SHT31;63583;49.976;20.182;2024-02-14T04:16:07;3.68;80.93
75022;SHT31;63583;49.976;20.182;2024-02-14T04:18:33;3.76;80.81
75022;SHT31;63583;49.976;20.182;2024-02-14T04:20:58;3.80;80.50
75022;SHT31;63583;49.976;20.182;2024-02-14T04:23:24;3.83;80.44
75022;SHT31;63583;49.976;20.182;2024-02-14T04:25:51;3.87;79.98
75022;SHT31;63583;49.976;20.182;2024-02-14T04:28:16;3.85;79.98
75022;SHT31;63583;49.976;20.182;2024-02-14T04:30:42;3.83;79.97
75022;SHT31;63583;49.976;20.182;2024-02-14T04:33:08;3.80;80.00
75022;SHT31;63583;49.976;20.182;2024-02-14T04:35:35;3.79;80.29
75022;SHT31;63583;49.976;20.182;2024-02-14T04:38:00;3.79;80.33
75022;SHT31;63583;49.976;20.182;2024-02-14T04:40:26;3.80;80.16
75022;SHT31;63583;49.976;20.182;2024-02-14T04:42:52;3.79;80.00
75022;SHT31;63583;49.976;20.182;2024-02-14T04:45:18;3.82;79.85
75022;SHT31;63583;49.976;20.182;2024-02-14T04:47:44;3.83;79.91
75022;SHT31;63583;49.976;20.182;2024-02-14T04:50:10;3.78;79.65
75022;SHT31;63583;49.976;20.182;2024-02-14T04:52:36;3.82;79.53
75022;SHT31;63583;49.976;20.182;2024-02-14T04:55:02;3.80;79.49
75022;SHT31;63583;49.976;20.182;2024-02-14T04:57:29;3.87;79.43
75022;SHT31;63583;49.976;20.182;2024-02-14T04:59:55;3.83;79.11
75022;SHT31;63583;49.976;20.182;2024-02-14T05:02:20;3.86;79.09
75022;SHT31;63583;49.976;20.182;2024-02-14T05:04:46;3.86;79.28
75022;SHT31;63583;49.976;20.182;2024-02-14T05:07:12;3.87;79.20
75022;SHT31;63583;49.976;20.182;2024-02-14T05:09:38;3.89;79.17
75022;SHT31;63583;49.976;20.182;2024-02-14T05:12:04;3.89;78.62
75022;SHT31;63583;49.976;20.182;2024-02-14T05:14:30;3.89;78.72
75022;SHT31;63583;49.976;20.182;2024-02-14T05:16:56;3.87;78.87
75022;SHT31;63583;49.976;20.182;2024-02-14T05:19:22;3.89;78.86
75022;SHT31;63583;49.976;20.182;2024-02-14T05:21:49;3.90;78.94
75022;SHT31;63583;49.976;20.182;2024-02-14T05:24:15;3.86;78.94
75022;SHT31;63583;49.976;20.182;2024-02-14T05:26:41;3.85;79.28
75022;SHT31;63583;49.976;20.182;2024-02-14T05:29:07;3.94;79.52
75022;SHT31;63583;49.976;20.182;2024-02-14T05:31:46;4.09;78.80
75022;SHT31;63583;49.976;20.182;2024-02-14T05:34:12;3.94;79.20
75022;SHT31;63583;49.976;20.182;2024-02-14T05:36:38;3.97;79.15
75022;SHT31;63583;49.976;20.182;2024-02-14T05:39:04;3.94;79.31
75022;SHT31;63583;49.976;20.182;2024-02-14T05:41:31;3.96;79.43
75022;SHT31;63583;49.976;20.182;2024-02-14T05:43:59;3.89;79.57
75022;SHT31;63583;49.976;20.182;2024-02-14T05:46:24;3.86;79.72
75022;SHT31;63583;49.976;20.182;2024-02-14T05:48:51;3.80;79.81
75022;SHT31;63583;49.976;20.182;2024-02-14T05:51:18;3.76;80.18
75022;SHT31;63583;49.976;20.182;2024-02-14T05:53:44;3.72;80.85
75022;SHT31;63583;49.976;20.182;2024-02-14T05:56:10;3.66;80.76
75022;SHT31;63583;49.976;20.182;2024-02-14T05:58:36;3.63;81.02
75022;SHT31;63583;49.976;20.182;2024-02-14T06:01:01;3.62;81.03
75022;SHT31;63583;49.976;20.182;2024-02-14T06:03:27;3.59;81.08
75022;SHT31;63583;49.976;20.182;2024-02-14T06:05:54;3.59;81.24
75022;SHT31;63583;49.976;20.182;2024-02-14T06:08:20;3.62;80.90
75022;SHT31;63583;49.976;20.182;2024-02-14T06:10:46;3.62;80.80
75022;SHT31;63583;49.976;20.182;2024-02-14T06:13:13;3.65;80.85
75022;SHT31;63583;49.976;20.182;2024-02-14T06:15:39;3.62;80.84
75022;SHT31;63583;49.976;20.182;2024-02-14T06:18:05;3.63;80.72
75022;SHT31;63583;49.976;20.182;2024-02-14T06:20:30;3.61;80.83
75022;SHT31;63583;49.976;20.182;2024-02-14T06:22:56;3.59;81.19
75022;SHT31;63583;49.976;20.182;2024-02-14T06:25:22;3.61;80.99
75022;SHT31;63583;49.976;20.182;2024-02-14T06:27:48;3.63;80.58
75022;SHT31;63583;49.976;20.182;2024-02-14T06:30:14;3.69;80.86
75022;SHT31;63583;49.976;20.182;2024-02-14T06:32:40;3.71;80.81
75022;SHT31;63583;49.976;20.182;2024-02-14T06:35:05;3.69;80.86
75022;SHT31;63583;49.976;20.182;2024-02-14T06:37:31;3.71;81.23
75022;SHT31;63583;49.976;20.182;2024-02-14T06:39:57;3.73;81.44
75022;SHT31;63583;49.976;20.182;2024-02-14T06:42:23;3.76;81.42
75022;SHT31;63583;49.976;20.182;2024-02-14T06:44:49;3.79;81.19
75022;SHT31;63583;49.976;20.182;2024-02-14T06:47:15;3.80;81.01
75022;SHT31;63583;49.976;20.182;2024-02-14T06:49:41;3.85;80.84
75022;SHT31;63583;49.976;20.182;2024-02-14T06:52:06;3.92;80.43
75022;SHT31;63583;49.976;20.182;2024-02-14T06:54:32;3.92;80.29
75022;SHT31;63583;49.976;20.182;2024-02-14T06:56:58;3.94;80.25
75022;SHT31;63583;49.976;20.182;2024-02-14T06:59:25;3.92;80.51
75022;SHT31;63583;49.976;20.182;2024-02-14T07:01:51;3.94;80.23
75022;SHT31;63583;49.976;20.182;2024-02-14T07:04:21;3.92;81.71
75022;SHT31;63583;49.976;20.182;2024-02-14T07:06:54;3.89;82.73
75022;SHT31;63583;49.976;20.182;2024-02-14T07:09:20;3.85;84.18
75022;SHT31;63583;49.976;20.182;2024-02-14T07:11:46;3.94;83.71
75022;SHT31;63583;49.976;20.182;2024-02-14T07:14:12;4.04;82.64
75022;SHT31;63583;49.976;20.182;2024-02-14T07:16:37;4.21;80.57
75022;SHT31;63583;49.976;20.182;2024-02-14T07:19:03;4.27;78.19
75022;SHT31;63583;49.976;20.182;2024-02-14T07:21:29;4.36;77.72
75022;SHT31;63583;49.976;20.182;2024-02-14T07:23:55;4.61;76.65
75022;SHT31;63583;49.976;20.182;2024-02-14T07:26:21;4.68;76.53
75022;SHT31;63583;49.976;20.182;2024-02-14T07:28:47;4.72;76.25
75022;SHT31;63583;49.976;20.182;2024-02-14T07:31:13;4.92;76.33
75022;SHT31;63583;49.976;20.182;2024-02-14T07:33:38;5.03;76.18
75022;SHT31;63583;49.976;20.182;2024-02-14T07:36:04;5.03;75.43
75022;SHT31;63583;49.976;20.182;2024-02-14T07:38:30;5.16;74.75
75022;SHT31;63583;49.976;20.182;2024-02-14T07:40:56;5.30;74.01
75022;SHT31;63583;49.976;20.182;2024-02-14T07:43:22;5.38;73.56
75022;SHT31;63583;49.976;20.182;2024-02-14T07:45:48;5.45;73.73
75022;SHT31;63583;49.976;20.182;2024-02-14T07:48:14;5.56;73.46
75022;SHT31;63583;49.976;20.182;2024-02-14T07:50:40;5.62;73.34
75022;SHT31;63583;49.976;20.182;2024-02-14T07:53:05;5.69;73.07
75022;SHT31;63583;49.976;20.182;2024-02-14T07:55:32;5.79;72.64
75022;SHT31;63583;49.976;20.182;2024-02-14T07:57:57;5.96;72.27
75022;SHT31;63583;49.976;20.182;2024-02-14T08:00:25;6.05;70.56
75022;SHT31;63583;49.976;20.182;2024-02-14T08:02:51;6.20;70.66
75022;SHT31;63583;49.976;20.182;2024-02-14T08:05:17;6.24;71.55
75022;SHT31;63583;49.976;20.182;2024-02-14T08:07:46;6.36;71.90
75022;SHT31;63583;49.976;20.182;2024-02-14T08:10:12;6.38;71.56
75022;SHT31;63583;49.976;20.182;2024-02-14T08:12:38;6.47;71.02
75022;SHT31;63583;49.976;20.182;2024-02-14T08:15:04;6.58;71.42
75022;SHT31;63583;49.976;20.182;2024-02-14T08:17:33;6.63;70.89
75022;SHT31;63583;49.976;20.182;2024-02-14T08:20:02;6.58;68.83
75022;SHT31;63583;49.976;20.182;2024-02-14T08:22:29;6.60;69.96
75022;SHT31;63583;49.976;20.182;2024-02-14T08:24:55;6.58;69.16
75022;SHT31;63583;49.976;20.182;2024-02-14T08:27:23;6.75;68.64
75022;SHT31;63583;49.976;20.182;2024-02-14T08:29:49;6.79;66.10
75022;SHT31;63583;49.976;20.182;2024-02-14T08:32:15;6.89;65.16
75022;SHT31;63583;49.976;20.182;2024-02-14T08:34:41;6.98;63.56
75022;SHT31;63583;49.976;20.182;2024-02-14T08:37:07;6.88;61.46
75022;SHT31;63583;49.976;20.182;2024-02-14T08:39:34;6.77;61.17
75022;SHT31;63583;49.976;20.182;2024-02-14T08:42:00;6.95;63.05
75022;SHT31;63583;49.976;20.182;2024-02-14T08:44:35;7.13;61.29
75022;SHT31;63583;49.976;20.182;2024-02-14T08:47:01;7.08;62.64
75022;SHT31;63583;49.976;20.182;2024-02-14T08:49:27;7.23;62.34
75022;SHT31;63583;49.976;20.182;2024-02-14T08:51:53;7.12;60.26
75022;SHT31;63583;49.976;20.182;2024-02-14T08:54:19;7.12;60.46
75022;SHT31;63583;49.976;20.182;2024-02-14T08:56:47;7.29;61.48
75022;SHT31;63583;49.976;20.182;2024-02-14T08:59:12;7.37;60.45
75022;SHT31;63583;49.976;20.182;2024-02-14T09:01:39;6.98;60.78
75022;SHT31;63583;49.976;20.182;2024-02-14T09:04:07;6.91;59.31
75022;SHT31;63583;49.976;20.182;2024-02-14T09:06:32;7.00;60.62
75022;SHT31;63583;49.976;20.182;2024-02-14T09:08:58;6.95;59.89
75022;SHT31;63583;49.976;20.182;2024-02-14T09:11:24;7.03;58.70
75022;SHT31;63583;49.976;20.182;2024-02-14T09:13:51;7.15;58.62
75022;SHT31;63583;49.976;20.182;2024-02-14T09:16:21;7.33;59.10
75022;SHT31;63583;49.976;20.182;2024-02-14T09:18:48;7.30;60.34
75022;SHT31;63583;49.976;20.182;2024-02-14T09:21:14;7.51;60.17
75022;SHT31;63583;49.976;20.182;2024-02-14T09:23:41;7.61;58.31
75022;SHT31;63583;49.976;20.182;2024-02-14T09:26:07;7.53;57.39
75022;SHT31;63583;49.976;20.182;2024-02-14T09:28:34;7.13;59.50
75022;SHT31;63583;49.976;20.182;2024-02-14T09:31:01;7.40;59.23
75022;SHT31;63583;49.976;20.182;2024-02-14T09:33:29;7.38;59.69
75022;SHT31;63583;49.976;20.182;2024-02-14T09:35:55;7.56;59.25
75022;SHT31;63583;49.976;20.182;2024-02-14T09:38:21;7.30;58.73
75022;SHT31;63583;49.976;20.182;2024-02-14T09:40:51;7.58;59.10
75022;SHT31;63583;49.976;20.182;2024-02-14T09:43:32;7.27;59.26
75022;SHT31;63583;49.976;20.182;2024-02-14T09:46:00;7.36;58.16
75022;SHT31;63583;49.976;20.182;2024-02-14T09:48:29;7.30;59.93
75022;SHT31;63583;49.976;20.182;2024-02-14T09:50:56;7.42;57.17
75022;SHT31;63583;49.976;20.182;2024-02-14T09:53:23;7.30;59.59
75022;SHT31;63583;49.976;20.182;2024-02-14T09:55:49;7.27;60.35
75022;SHT31;63583;49.976;20.182;2024-02-14T09:58:17;7.44;59.71
75022;SHT31;63583;49.976;20.182;2024-02-14T10:00:42;7.61;59.07
75022;SHT31;63583;49.976;20.182;2024-02-14T10:03:08;7.65;59.93
75022;SHT31;63583;49.976;20.182;2024-02-14T10:05:35;7.75;57.24
75022;SHT31;63583;49.976;20.182;2024-02-14T10:08:01;7.82;57.84
75022;SHT31;63583;49.976;20.182;2024-02-14T10:10:27;7.67;59.71
75022;SHT31;63583;49.976;20.182;2024-02-14T10:12:56;7.71;59.45
75022;SHT31;63583;49.976;20.182;2024-02-14T10:15:22;7.56;57.26
75022;SHT31;63583;49.976;20.182;2024-02-14T10:17:48;7.86;58.22
75022;SHT31;63583;49.976;20.182;2024-02-14T10:20:17;7.65;58.99
75022;SHT31;63583;49.976;20.182;2024-02-14T10:22:44;7.77;57.29
75022;SHT31;63583;49.976;20.182;2024-02-14T10:25:11;7.89;57.91
75022;SHT31;63583;49.976;20.182;2024-02-14T10:27:38;7.86;56.08
75022;SHT31;63583;49.976;20.182;2024-02-14T10:30:08;7.67;56.48
75022;SHT31;63583;49.976;20.182;2024-02-14T10:32:36;7.64;58.89
75022;SHT31;63583;49.976;20.182;2024-02-14T10:35:06;7.78;57.50
75022;SHT31;63583;49.976;20.182;2024-02-14T10:37:37;7.70;59.21
75022;SHT31;63583;49.976;20.182;2024-02-14T10:40:04;7.92;57.58
75022;SHT31;63583;49.976;20.182;2024-02-14T10:42:33;7.65;57.09
75022;SHT31;63583;49.976;20.182;2024-02-14T10:44:59;7.78;59.42
75022;SHT31;63583;49.976;20.182;2024-02-14T10:47:34;7.85;57.49
75022;SHT31;63583;49.976;20.182;2024-02-14T10:50:03;7.85;58.10
75022;SHT31;63583;49.976;20.182;2024-02-14T10:52:32;7.84;56.92
75022;SHT31;63583;49.976;20.182;2024-02-14T10:55:05;7.63;58.28
75022;SHT31;63583;49.976;20.182;2024-02-14T10:57:35;7.65;58.09
75022;SHT31;63583;49.976;20.182;2024-02-14T11:00:08;7.67;58.82
75022;SHT31;63583;49.976;20.182;2024-02-14T11:02:37;7.89;59.19
75022;SHT31;63583;49.976;20.182;2024-02-14T11:05:03;7.91;58.17
75022;SHT31;63583;49.976;20.182;2024-02-14T11:07:31;7.88;57.97
75022;SHT31;63583;49.976;20.182;2024-02-14T11:10:06;8.21;57.56
75022;SHT31;63583;49.976;20.182;2024-02-14T11:12:36;8.12;56.28
75022;SHT31;63583;49.976;20.182;2024-02-14T11:15:24;7.77;57.43
75022;SHT31;63583;49.976;20.182;2024-02-14T11:17:50;7.99;58.61
75022;SHT31;63583;49.976;20.182;2024-02-14T11:20:20;8.13;57.02
75022;SHT31;63583;49.976;20.182;2024-02-14T11:22:53;7.98;56.73
75022;SHT31;63583;49.976;20.182;2024-02-14T11:25:22;7.82;57.58
75022;SHT31;63583;49.976;20.182;2024-02-14T11:27:48;7.73;58.26
75022;SHT31;63583;49.976;20.182;2024-02-14T11:30:15;7.74;58.19
75022;SHT31;63583;49.976;20.182;2024-02-14T11:32:42;7.85;57.67
75022;SHT31;63583;49.976;20.182;2024-02-14T11:35:11;8.05;56.30
75022;SHT31;63583;49.976;20.182;2024-02-14T11:37:37;8.13;56.91
75022;SHT31;63583;49.976;20.182;2024-02-14T11:40:02;8.19;57.69
75022;SHT31;63583;49.976;20.182;2024-02-14T11:42:28;8.07;58.21
75022;SHT31;63583;49.976;20.182;2024-02-14T11:44:54;7.91;56.89
75022;SHT31;63583;49.976;20.182;2024-02-14T11:47:23;7.77;59.02
75022;SHT31;63583;49.976;20.182;2024-02-14T11:49:48;7.74;57.10
75022;SHT31;63583;49.976;20.182;2024-02-14T11:52:14;8.01;57.96
75022;SHT31;63583;49.976;20.182;2024-02-14T11:54:46;8.21;59.07
75022;SHT31;63583;49.976;20.182;2024-02-14T11:57:17;8.39;57.49
75022;SHT31;63583;49.976;20.182;2024-02-14T11:59:44;8.54;56.93
75022;SHT31;63583;49.976;20.182;2024-02-14T12:02:12;8.53;56.57
75022;SHT31;63583;49.976;20.182;2024-02-14T12:04:38;8.15;56.42
75022;SHT31;63583;49.976;20.182;2024-02-14T12:07:04;8.26;56.47
75022;SHT31;63583;49.976;20.182;2024-02-14T12:09:30;8.43;53.68
75022;SHT31;63583;49.976;20.182;2024-02-14T12:11:56;8.26;55.25
75022;SHT31;63583;49.976;20.182;2024-02-14T12:14:26;8.19;54.53
75022;SHT31;63583;49.976;20.182;2024-02-14T12:17:00;8.28;54.10
75022;SHT31;63583;49.976;20.182;2024-02-14T12:19:28;7.96;54.75
75022;SHT31;63583;49.976;20.182;2024-02-14T12:21:54;8.07;55.77
75022;SHT31;63583;49.976;20.182;2024-02-14T12:24:27;8.07;55.64
75022;SHT31;63583;49.976;20.182;2024-02-14T12:26:54;8.13;55.53
75022;SHT31;63583;49.976;20.182;2024-02-14T12:29:23;8.25;56.63
75022;SHT31;63583;49.976;20.182;2024-02-14T12:31:49;8.16;55.45
75022;SHT31;63583;49.976;20.182;2024-02-14T12:34:14;8.28;56.68
75022;SHT31;63583;49.976;20.182;2024-02-14T12:36:40;8.40;55.84
75022;SHT31;63583;49.976;20.182;2024-02-14T12:39:06;8.39;56.73
75022;SHT31;63583;49.976;20.182;2024-02-14T12:41:32;8.25;55.55
75022;SHT31;63583;49.976;20.182;2024-02-14T12:44:00;8.25;56.10
75022;SHT31;63583;49.976;20.182;2024-02-14T12:46:27;8.46;53.82
75022;SHT31;63583;49.976;20.182;2024-02-14T12:48:53;8.40;54.06
75022;SHT31;63583;49.976;20.182;2024-02-14T12:51:19;8.47;54.38
75022;SHT31;63583;49.976;20.182;2024-02-14T12:53:45;8.56;54.80
75022;SHT31;63583;49.976;20.182;2024-02-14T12:56:11;8.61;55.55
75022;SHT31;63583;49.976;20.182;2024-02-14T12:58:37;8.67;56.27
75022;SHT31;63583;49.976;20.182;2024-02-14T13:01:03;8.74;54.58
75022;SHT31;63583;49.976;20.182;2024-02-14T13:03:32;8.60;54.34
75022;SHT31;63583;49.976;20.182;2024-02-14T13:05:59;8.63;53.63
75022;SHT31;63583;49.976;20.182;2024-02-14T13:08:25;8.59;53.88
75022;SHT31;63583;49.976;20.182;2024-02-14T13:10:52;8.59;54.20
75022;SHT31;63583;49.976;20.182;2024-02-14T13:13:18;8.53;55.23
75022;SHT31;63583;49.976;20.182;2024-02-14T13:15:44;8.60;55.76
75022;SHT31;63583;49.976;20.182;2024-02-14T13:18:10;8.53;53.86
75022;SHT31;63583;49.976;20.182;2024-02-14T13:20:36;8.43;55.70
75022;SHT31;63583;49.976;20.182;2024-02-14T13:23:03;8.43;54.43
75022;SHT31;63583;49.976;20.182;2024-02-14T13:25:29;8.49;56.41
75022;SHT31;63583;49.976;20.182;2024-02-14T13:27:55;8.34;55.42
75022;SHT31;63583;49.976;20.182;2024-02-14T13:30:21;8.21;54.04
75022;SHT31;63583;49.976;20.182;2024-02-14T13:32:48;8.32;54.08
75022;SHT31;63583;49.976;20.182;2024-02-14T13:35:14;8.44;54.17
75022;SHT31;63583;49.976;20.182;2024-02-14T13:37:39;8.44;55.02
75022;SHT31;63583;49.976;20.182;2024-02-14T13:40:06;8.51;54.47
75022;SHT31;63583;49.976;20.182;2024-02-14T13:42:36;8.50;54.85
75022;SHT31;63583;49.976;20.182;2024-02-14T13:45:05;8.25;56.82
75022;SHT31;63583;49.976;20.182;2024-02-14T13:47:36;8.32;55.02
75022;SHT31;63583;49.976;20.182;2024-02-14T13:50:08;8.37;55.04
75022;SHT31;63583;49.976;20.182;2024-02-14T13:52:34;8.50;55.01
75022;SHT31;63583;49.976;20.182;2024-02-14T13:55:02;8.51;54.62
75022;SHT31;63583;49.976;20.182;2024-02-14T13:57:28;8.49;55.25
75022;SHT31;63583;49.976;20.182;2024-02-14T13:59:55;8.53;54.13
75022;SHT31;63583;49.976;20.182;2024-02-14T14:02:21;8.51;55.23
75022;SHT31;63583;49.976;20.182;2024-02-14T14:04:48;8.46;53.97
75022;SHT31;63583;49.976;20.182;2024-02-14T14:07:14;8.28;56.98
75022;SHT31;63583;49.976;20.182;2024-02-14T14:09:40;8.07;58.66
75022;SHT31;63583;49.976;20.182;2024-02-14T14:12:06;8.06;60.22
75022;SHT31;63583;49.976;20.182;2024-02-14T14:14:32;7.98;60.65
75022;SHT31;63583;49.976;20.182;2024-02-14T14:16:58;8.02;59.86
75022;SHT31;63583;49.976;20.182;2024-02-14T14:19:24;8.01;59.56
75022;SHT31;63583;49.976;20.182;2024-02-14T14:21:49;8.05;59.45
75022;SHT31;63583;49.976;20.182;2024-02-14T14:24:15;8.03;58.86
75022;SHT31;63583;49.976;20.182;2024-02-14T14:26:41;8.02;58.80
75022;SHT31;63583;49.976;20.182;2024-02-14T14:29:07;7.95;58.97
75022;SHT31;63583;49.976;20.182;2024-02-14T14:31:34;7.92;59.27
75022;SHT31;63583;49.976;20.182;2024-02-14T14:34:01;8.06;58.87
75022;SHT31;63583;49.976;20.182;2024-02-14T14:36:27;7.79;59.74
75022;SHT31;63583;49.976;20.182;2024-02-14T14:38:53;7.79;58.30
75022;SHT31;63583;49.976;20.182;2024-02-14T14:41:20;7.67;59.28
75022;SHT31;63583;49.976;20.182;2024-02-14T14:43:46;7.64;60.21
75022;SHT31;63583;49.976;20.182;2024-02-14T14:46:15;7.64;59.61
75022;SHT31;63583;49.976;20.182;2024-02-14T14:48:41;7.50;60.36
75022;SHT31;63583;49.976;20.182;2024-02-14T14:51:07;7.43;59.98
75022;SHT31;63583;49.976;20.182;2024-02-14T14:53:34;7.42;60.44
75022;SHT31;63583;49.976;20.182;2024-02-14T14:56:01;7.38;60.29
75022;SHT31;63583;49.976;20.182;2024-02-14T14:58:27;7.37;61.07
75022;SHT31;63583;49.976;20.182;2024-02-14T15:00:53;7.27;61.14
75022;SHT31;63583;49.976;20.182;2024-02-14T15:03:23;7.34;61.26
75022;SHT31;63583;49.976;20.182;2024-02-14T15:05:49;7.29;61.59
75022;SHT31;63583;49.976;20.182;2024-02-14T15:08:15;7.17;62.06
75022;SHT31;63583;49.976;20.182;2024-02-14T15:10:43;7.17;63.00
75022;SHT31;63583;49.976;20.182;2024-02-14T15:13:09;7.15;62.71
75022;SHT31;63583;49.976;20.182;2024-02-14T15:15:35;7.13;63.03
75022;SHT31;63583;49.976;20.182;2024-02-14T15:18:02;7.05;63.15
75022;SHT31;63583;49.976;20.182;2024-02-14T15:20:28;7.06;63.00
75022;SHT31;63583;49.976;20.182;2024-02-14T15:22:56;7.13;62.06
75022;SHT31;63583;49.976;20.182;2024-02-14T15:25:21;7.05;61.90
75022;SHT31;63583;49.976;20.182;2024-02-14T15:27:47;6.98;63.08